Time;durP1;ratioP1;P1;durP2;ratioP2;P2;SDS_P1;SDS_P2;PMS_P1;PMS_P2;Temp;Humidity;BMP_temperature;BMP_pressure;BME280_temperature;BME280_humidity;BME280_pressure;Samples;Min_cycle;Max_cycle;Signal;HPM_P1;HPM_P2
2022/04/13 00:00:15;;;;;;;11.15;5.75;;;;;;;20.44;45.41;101252.38;5044281;28;20420;-39
2022/04/13 00:02:42;;;;;;;8.82;5.15;;;;;;;20.43;45.57;101251.56;5045443;28;20041;-39
2022/04/13 00:05:10;;;;;;;8.18;5.53;;;;;;;20.42;45.35;101257.06;5046367;28;20045;-40
2022/04/13 00:07:37;;;;;;;10.02;5.35;;;;;;;20.41;45.58;101261.63;5045102;28;20045;-39
2022/04/13 00:10:05;;;;;;;10.52;5.22;;;;;;;20.39;45.42;101265.50;5045191;28;20059;-39
2022/04/13 00:12:31;;;;;;;7.97;4.85;;;;;;;20.38;45.88;101277.25;5042804;28;20131;-39
2022/04/13 00:14:58;;;;;;;7.60;4.80;;;;;;;20.38;45.63;101272.72;5044024;28;20135;-39
2022/04/13 00:17:25;;;;;;;10.02;5.32;;;;;;;20.36;45.20;101274.72;5045142;28;20045;-39
2022/04/13 00:19:51;;;;;;;11.05;5.40;;;;;;;20.35;45.74;101277.59;5044887;28;20140;-39
2022/04/13 00:22:18;;;;;;;9.25;4.43;;;;;;;20.34;45.14;101281.25;5044319;28;20045;-39
2022/04/13 00:24:44;;;;;;;8.48;4.78;;;;;;;20.32;45.88;101273.34;5047006;28;20059;-39
2022/04/13 00:27:11;;;;;;;10.50;5.03;;;;;;;20.30;45.84;101277.19;5046986;28;20040;-39
2022/04/13 00:29:37;;;;;;;9.07;5.30;;;;;;;20.30;45.40;101278.06;5046215;28;20053;-39
2022/04/13 00:32:04;;;;;;;7.95;4.65;;;;;;;20.30;45.32;101277.19;5045999;28;20368;-39
2022/04/13 00:34:31;;;;;;;9.32;4.13;;;;;;;20.29;45.44;101286.28;5046631;28;20077;-40
2022/04/13 00:36:57;;;;;;;6.40;4.10;;;;;;;20.27;46.00;101283.75;5044720;28;20143;-39
2022/04/13 00:39:27;;;;;;;8.88;4.53;;;;;;;20.27;45.87;101293.69;5046208;28;20141;-40
2022/04/13 00:41:58;;;;;;;8.30;4.60;;;;;;;20.26;45.45;101289.28;5044395;28;20124;-40
2022/04/13 00:44:27;;;;;;;7.47;4.43;;;;;;;20.25;46.06;101291.13;5045602;28;20036;-40
2022/04/13 00:46:54;;;;;;;10.45;4.97;;;;;;;20.24;45.68;101289.44;5044002;28;20678;-40
2022/04/13 00:49:23;;;;;;;7.03;3.90;;;;;;;20.23;45.33;101295.00;5048145;28;20434;-39
2022/04/13 00:51:50;;;;;;;9.75;4.75;;;;;;;20.22;45.54;101294.13;5049384;28;20439;-40
2022/04/13 00:54:18;;;;;;;9.48;4.80;;;;;;;20.19;45.72;101297.16;5050652;28;20049;-40
2022/04/13 00:56:48;;;;;;;8.60;4.43;;;;;;;20.18;46.09;101293.63;5048292;28;20076;-40
2022/04/13 00:59:15;;;;;;;7.20;4.38;;;;;;;20.18;45.53;101301.69;5047669;28;20053;-40
2022/04/13 01:01:46;;;;;;;7.43;4.40;;;;;;;20.18;45.59;101301.69;5049877;28;20049;-39
2022/04/13 01:04:14;;;;;;;8.07;4.13;;;;;;;20.17;45.73;101307.22;5050366;28;20160;-39
2022/04/13 01:06:42;;;;;;;10.40;4.47;;;;;;;20.16;45.43;101305.53;5048153;28;20068;-39
2022/04/13 01:09:11;;;;;;;9.88;5.10;;;;;;;20.15;45.51;101307.38;5048560;28;20112;-40
2022/04/13 01:11:38;;;;;;;7.53;4.28;;;;;;;20.16;45.58;101310.91;5047732;28;20075;-39
2022/04/13 01:14:05;;;;;;;9.27;4.25;;;;;;;20.15;45.48;101312.78;5047912;28;20051;-39
2022/04/13 01:16:34;;;;;;;6.85;4.10;;;;;;;20.14;45.98;101310.22;5044401;28;20560;-40
2022/04/13 01:19:03;;;;;;;7.65;4.30;;;;;;;20.15;46.34;101323.53;5037022;28;20045;-39
2022/04/13 01:21:45;;;;;;;5.82;3.72;;;;;;;20.13;45.86;101325.53;5030107;28;20157;-39
2022/04/13 01:24:12;;;;;;;9.13;4.03;;;;;;;20.14;46.34;101320.97;5031554;28;20124;-39
2022/04/13 01:26:39;;;;;;;5.28;3.78;;;;;;;20.13;45.79;101325.53;5031039;28;20041;-39
2022/04/13 01:29:06;;;;;;;6.63;3.72;;;;;;;20.12;45.65;101328.38;5032188;28;20549;-40
2022/04/13 01:31:33;;;;;;;6.18;3.42;;;;;;;20.12;46.22;101326.53;5032866;28;20047;-39
2022/04/13 01:34:00;;;;;;;6.88;3.75;;;;;;;20.12;45.95;101328.38;5028622;28;20045;-39
2022/04/13 01:36:27;;;;;;;6.22;3.42;;;;;;;20.12;45.88;101331.06;5033432;28;20132;-39
2022/04/13 01:38:54;;;;;;;7.35;3.70;;;;;;;20.11;45.82;101329.38;5030275;28;20042;-40
2022/04/13 01:41:20;;;;;;;5.45;3.33;;;;;;;20.10;45.94;101331.25;5028574;28;20415;-40
2022/04/13 01:43:47;;;;;;;6.32;3.55;;;;;;;20.09;46.42;101332.22;5029784;28;20063;-40
2022/04/13 01:46:13;;;;;;;5.88;3.22;;;;;;;20.09;46.09;101339.44;5033918;28;20038;-39
2022/04/13 01:48:40;;;;;;;6.50;3.88;;;;;;;20.09;46.14;101345.66;5028925;28;20659;-40
2022/04/13 01:51:07;;;;;;;9.50;4.03;;;;;;;20.08;46.51;101338.59;5030013;28;20041;-40
2022/04/13 01:53:35;;;;;;;7.03;3.40;;;;;;;20.09;46.53;101340.28;5031220;28;20435;-39
2022/04/13 01:56:02;;;;;;;6.75;3.88;;;;;;;20.07;46.08;101339.63;5029243;28;20053;-40
2022/04/13 01:58:29;;;;;;;7.55;4.03;;;;;;;20.06;46.00;101340.63;5031001;28;20057;-39
2022/04/13 02:00:56;;;;;;;8.05;3.58;;;;;;;20.05;46.27;101343.44;5032127;28;20462;-39
2022/04/13 02:03:25;;;;;;;5.25;3.47;;;;;;;20.07;46.50;101341.47;5032214;28;20041;-40
2022/04/13 02:05:55;;;;;;;6.30;3.55;;;;;;;20.04;46.34;101342.59;5030187;28;20207;-40
2022/04/13 02:08:22;;;;;;;11.07;3.75;;;;;;;20.04;46.04;101342.59;5032108;28;20051;-40
2022/04/13 02:10:50;;;;;;;5.78;3.55;;;;;;;20.04;46.37;101342.59;5027061;28;20050;-39
2022/04/13 02:13:16;;;;;;;7.00;3.25;;;;;;;20.03;46.12;101343.63;5031059;28;20421;-39
2022/04/13 02:15:43;;;;;;;6.72;3.33;;;;;;;20.02;46.19;101341.94;5030372;28;20521;-38
2022/04/13 02:18:09;;;;;;;7.45;3.88;;;;;;;20.03;45.69;101343.63;5044644;28;20180;-39
2022/04/13 02:20:36;;;;;;;4.20;2.67;;;;;;;20.02;46.53;101343.75;5047140;28;20131;-38
2022/04/13 02:23:03;;;;;;;4.60;2.97;;;;;;;20.01;46.16;101345.59;5050591;28;20043;-40
2022/04/13 02:25:30;;;;;;;5.95;3.70;;;;;;;20.01;46.60;101344.75;5047354;28;20049;-40
2022/04/13 02:27:56;;;;;;;5.88;3.28;;;;;;;20.00;46.50;101349.31;5048370;28;20049;-40
2022/04/13 02:30:23;;;;;;;7.10;3.15;;;;;;;20.00;46.47;101341.22;5044679;28;20041;-39
2022/04/13 02:32:50;;;;;;;6.13;3.25;;;;;;;19.99;46.61;101349.47;5048844;28;20048;-40
2022/04/13 02:35:17;;;;;;;5.32;3.45;;;;;;;19.98;46.38;101351.31;5047763;28;20075;-39
2022/04/13 02:37:43;;;;;;;6.85;3.40;;;;;;;19.97;45.99;101350.44;5046742;28;20132;-39
2022/04/13 02:40:12;;;;;;;6.30;3.17;;;;;;;19.97;46.18;101347.75;5045130;28;20049;-39
2022/04/13 02:42:38;;;;;;;7.95;3.72;;;;;;;19.97;46.58;101353.13;5047428;28;20053;-39
2022/04/13 02:45:06;;;;;;;6.70;2.92;;;;;;;19.96;46.19;101348.75;5046173;28;20129;-38
2022/04/13 02:47:34;;;;;;;6.57;2.78;;;;;;;19.97;46.72;101360.38;5046460;28;20049;-39
2022/04/13 02:50:01;;;;;;;6.50;3.38;;;;;;;19.96;46.43;101358.69;5049445;28;20041;-39
2022/04/13 02:52:28;;;;;;;6.68;3.28;;;;;;;19.95;46.51;101359.69;5046387;28;20135;-39
2022/04/13 02:54:58;;;;;;;7.80;3.20;;;;;;;19.93;46.21;101356.28;5045512;28;20381;-39
2022/04/13 02:57:25;;;;;;;3.72;2.90;;;;;;;19.95;46.23;101359.69;5044585;28;20099;-39
2022/04/13 02:59:52;;;;;;;6.43;3.22;;;;;;;19.94;46.54;101352.63;5044442;28;20343;-39
2022/04/13 03:02:19;;;;;;;6.15;3.33;;;;;;;19.92;46.69;101357.28;5044667;28;20047;-39
2022/04/13 03:04:47;;;;;;;6.57;2.85;;;;;;;19.91;46.72;101356.44;5047959;28;20045;-39
2022/04/13 03:07:15;;;;;;;5.43;2.92;;;;;;;19.92;46.56;101362.69;5047092;28;20119;-38
2022/04/13 03:09:42;;;;;;;5.55;2.70;;;;;;;19.90;46.38;101360.16;5046041;28;20045;-39
2022/04/13 03:12:10;;;;;;;5.25;3.00;;;;;;;19.89;46.28;101360.28;5046524;28;20041;-39
2022/04/13 03:14:38;;;;;;;7.13;3.17;;;;;;;19.89;46.14;101365.66;5046348;28;20043;-38
2022/04/13 03:17:05;;;;;;;5.70;3.28;;;;;;;19.88;46.40;101362.13;5046025;28;20305;-38
2022/04/13 03:19:31;;;;;;;6.65;3.38;;;;;;;19.87;46.73;101371.22;5048661;28;20052;-39
2022/04/13 03:21:58;;;;;;;5.70;2.78;;;;;;;19.86;46.46;101379.41;5046381;28;20061;-38
2022/04/13 03:24:24;;;;;;;8.52;3.35;;;;;;;19.87;46.27;101378.44;5047956;28;20144;-38
2022/04/13 03:26:52;;;;;;;7.05;3.00;;;;;;;19.85;46.52;101378.56;5047451;28;20080;-39
2022/04/13 03:29:19;;;;;;;7.80;2.67;;;;;;;19.86;46.16;101384.78;5045277;28;20049;-39
2022/04/13 03:31:46;;;;;;;5.53;2.78;;;;;;;19.84;46.36;101379.56;5047260;28;20040;-40
2022/04/13 03:34:13;;;;;;;5.40;3.05;;;;;;;19.83;46.82;101380.59;5045228;28;20056;-39
2022/04/13 03:36:39;;;;;;;6.60;2.97;;;;;;;19.82;46.86;101389.66;5046729;28;20045;-39
2022/04/13 03:39:09;;;;;;;7.68;2.95;;;;;;;19.82;46.73;101402.25;5044035;28;20052;-40
2022/04/13 03:41:36;;;;;;;4.65;3.10;;;;;;;19.82;46.03;101400.41;5048480;28;20045;-39
2022/04/13 03:44:03;;;;;;;7.50;3.15;;;;;;;19.81;46.84;101401.41;5044835;28;21554;-40
2022/04/13 03:46:31;;;;;;;3.40;2.58;;;;;;;19.80;46.26;101398.88;5044738;28;20055;-39
2022/04/13 03:48:58;;;;;;;4.72;2.78;;;;;;;19.81;46.24;101400.56;5046432;28;20037;-40
2022/04/13 03:51:25;;;;;;;4.22;2.50;;;;;;;19.80;46.17;101405.09;5047023;28;20127;-40
2022/04/13 03:53:51;;;;;;;5.63;2.70;;;;;;;19.79;46.55;101400.72;5044520;28;20412;-40
2022/04/13 03:56:18;;;;;;;6.88;3.28;;;;;;;19.80;46.44;101406.94;5046728;28;20055;-39
2022/04/13 03:58:44;;;;;;;3.40;2.47;;;;;;;19.78;46.71;101414.28;5045923;28;20044;-39
2022/04/13 04:01:11;;;;;;;6.63;3.33;;;;;;;19.78;46.98;101414.28;5046793;28;20684;-39
2022/04/13 04:03:38;;;;;;;6.43;2.85;;;;;;;19.76;46.70;101421.69;5045479;28;20041;-39
2022/04/13 04:06:05;;;;;;;6.30;2.97;;;;;;;19.75;46.86;101414.63;5040908;28;20107;-39
2022/04/13 04:08:35;;;;;;;3.90;2.40;;;;;;;19.75;46.65;101410.09;5043157;28;20045;-39
2022/04/13 04:11:02;;;;;;;7.07;2.97;;;;;;;19.75;46.82;101414.63;5028530;28;20045;-39
2022/04/13 04:13:28;;;;;;;6.13;3.03;;;;;;;19.74;47.04;101416.47;5046260;28;20124;-39
2022/04/13 04:15:55;;;;;;;7.47;3.25;;;;;;;19.73;46.42;101412.91;5045299;28;20096;-39
2022/04/13 04:18:21;;;;;;;4.10;2.67;;;;;;;19.73;46.60;101414.75;5043440;28;20056;-39
2022/04/13 04:20:48;;;;;;;4.03;2.67;;;;;;;19.73;46.94;101423.66;5048251;28;20063;-39
2022/04/13 04:23:15;;;;;;;5.05;2.78;;;;;;;19.72;46.95;101427.38;5049835;28;20033;-38
2022/04/13 04:25:41;;;;;;;9.48;3.90;;;;;;;19.71;46.60;101433.75;5048323;28;20562;-39
2022/04/13 04:28:10;;;;;;;9.00;3.75;;;;;;;19.71;46.64;101431.06;5048749;28;20047;-39
2022/04/13 04:30:38;;;;;;;7.63;3.53;;;;;;;19.71;47.09;101431.06;5049359;28;20072;-39
2022/04/13 04:33:05;;;;;;;10.88;4.13;;;;;;;19.71;47.04;101435.59;5041612;28;20043;-39
2022/04/13 04:35:32;;;;;;;10.32;4.53;;;;;;;19.70;46.73;101442.81;5049471;28;20148;-39
2022/04/13 04:37:59;;;;;;;12.38;4.55;;;;;;;19.71;47.13;101443.66;5050244;28;20179;-39
2022/04/13 04:40:26;;;;;;;14.73;5.65;;;;;;;19.69;47.13;101448.31;5049925;28;20057;-39
2022/04/13 04:42:54;;;;;;;14.23;5.97;;;;;;;19.69;46.86;101445.63;5048976;28;20136;-39
2022/04/13 04:45:22;;;;;;;11.02;5.00;;;;;;;19.69;46.64;101457.25;5048626;28;20049;-39
2022/04/13 04:47:49;;;;;;;17.92;6.10;;;;;;;19.70;46.95;101456.28;5047234;28;20140;-39
2022/04/13 04:50:17;;;;;;;13.85;6.05;;;;;;;19.68;46.77;101463.63;5049224;28;20156;-39
2022/04/13 04:52:45;;;;;;;16.10;5.70;;;;;;;19.66;47.12;101462.94;5050033;28;20364;-39
2022/04/13 04:55:14;;;;;;;16.15;6.75;;;;;;;19.67;46.55;101464.63;5050470;28;20412;-39
2022/04/13 04:57:40;;;;;;;13.18;5.90;;;;;;;19.67;46.56;101479.91;5049116;28;20127;-39
2022/04/13 05:00:10;;;;;;;14.35;6.35;;;;;;;19.67;47.39;101478.06;5047435;28;20072;-39
2022/04/13 05:02:37;;;;;;;15.43;6.75;;;;;;;19.66;47.14;101476.38;5049770;28;20051;-39
2022/04/13 05:05:05;;;;;;;14.60;6.70;;;;;;;19.65;46.77;101488.13;5048798;28;20067;-39
2022/04/13 05:07:33;;;;;;;13.75;7.03;;;;;;;19.63;46.91;101486.59;5048210;28;20148;-39
2022/04/13 05:10:00;;;;;;;23.15;7.05;;;;;;;19.63;46.75;101500.03;5048718;28;20090;-39
2022/04/13 05:12:26;;;;;;;15.30;6.88;;;;;;;19.64;46.73;101501.72;5050272;28;20135;-39
2022/04/13 05:14:55;;;;;;;16.75;7.65;;;;;;;19.63;46.61;101498.19;5046114;28;20052;-39
2022/04/13 05:17:22;;;;;;;16.77;7.03;;;;;;;19.63;46.69;101500.03;5048848;28;20053;-39
2022/04/13 05:19:49;;;;;;;13.98;7.38;;;;;;;19.61;47.20;101502.84;5050751;28;20059;-39
2022/04/13 05:22:16;;;;;;;15.00;6.82;;;;;;;19.61;46.75;101500.16;5048901;28;20041;-39
2022/04/13 05:24:43;;;;;;;14.15;6.90;;;;;;;19.61;47.43;101504.66;5047492;28;20041;-39
2022/04/13 05:27:10;;;;;;;19.15;7.05;;;;;;;19.60;47.34;101505.69;5045870;28;20045;-39
2022/04/13 05:29:36;;;;;;;13.65;7.55;;;;;;;19.61;47.14;101513.63;5049571;28;20145;-39
2022/04/13 05:32:03;;;;;;;19.85;6.97;;;;;;;19.60;46.74;101514.59;5046583;28;20195;-40
2022/04/13 05:34:31;;;;;;;18.58;6.85;;;;;;;19.60;47.40;101509.22;5051095;28;20120;-39
2022/04/13 05:36:58;;;;;;;17.27;7.15;;;;;;;19.61;46.96;101523.50;5050140;28;20041;-40
2022/04/13 05:39:25;;;;;;;15.25;6.95;;;;;;;19.61;46.91;101519.00;5053060;28;20350;-39
2022/04/13 05:41:52;;;;;;;15.88;7.28;;;;;;;19.61;46.99;101520.81;5043959;28;20111;-39
2022/04/13 05:44:19;;;;;;;10.95;6.63;;;;;;;19.62;47.39;101523.41;5047682;28;20548;-40
2022/04/13 05:46:46;;;;;;;13.90;6.75;;;;;;;19.63;47.03;101530.47;5048456;28;20123;-40
2022/04/13 05:49:13;;;;;;;13.25;6.65;;;;;;;19.65;47.49;101533.00;5051271;28;20048;-40
2022/04/13 05:51:40;;;;;;;14.43;6.88;;;;;;;19.66;47.23;101540.09;5051718;28;20049;-40
2022/04/13 05:54:06;;;;;;;12.68;6.43;;;;;;;19.66;46.84;101546.31;5050408;28;20048;-38
2022/04/13 05:56:33;;;;;;;13.35;6.78;;;;;;;19.67;46.96;101547.16;5051084;28;20499;-39
2022/04/13 05:59:00;;;;;;;11.00;6.10;;;;;;;19.69;47.21;101554.06;5051081;28;20698;-39
2022/04/13 06:01:26;;;;;;;12.30;7.05;;;;;;;19.70;46.83;101547.72;5052695;28;20451;-39
2022/04/13 06:03:53;;;;;;;12.48;5.95;;;;;;;19.71;46.95;101552.09;5050213;28;20041;-39
2022/04/13 06:06:19;;;;;;;13.40;6.90;;;;;;;19.72;46.98;101547.56;5050121;28;20049;-39
2022/04/13 06:08:46;;;;;;;14.02;6.80;;;;;;;19.73;46.70;101549.25;5051617;28;20076;-39
2022/04/13 06:11:13;;;;;;;11.85;6.63;;;;;;;19.74;46.71;101550.97;5049584;28;20320;-38
2022/04/13 06:13:41;;;;;;;12.48;6.72;;;;;;;19.76;47.00;101550.81;5049064;28;20551;-38
2022/04/13 06:16:08;;;;;;;12.82;6.13;;;;;;;19.77;46.62;101558.72;5050379;28;20323;-38
2022/04/13 06:18:34;;;;;;;10.60;6.60;;;;;;;19.79;46.92;101570.19;5050575;28;20053;-39
2022/04/13 06:21:01;;;;;;;10.45;6.10;;;;;;;19.80;46.68;101569.19;5051092;28;20045;-39
2022/04/13 06:23:28;;;;;;;12.85;6.00;;;;;;;19.81;46.44;101568.19;5050062;28;20072;-38
2022/04/13 06:25:54;;;;;;;14.98;6.22;;;;;;;19.82;47.21;101579.78;5049798;28;20045;-39
2022/04/13 06:28:21;;;;;;;14.95;6.20;;;;;;;19.83;46.57;101594.94;5051980;28;20208;-39
2022/04/13 06:30:47;;;;;;;10.52;6.30;;;;;;;19.84;47.01;101594.78;5047114;28;20040;-39
2022/04/13 06:33:14;;;;;;;13.63;6.43;;;;;;;19.85;46.36;101592.94;5047151;28;20047;-39
2022/04/13 06:35:40;;;;;;;11.43;6.05;;;;;;;19.85;47.21;101595.63;5050660;28;20045;-38
2022/04/13 06:38:07;;;;;;;11.80;5.95;;;;;;;19.87;46.68;101607.13;5051572;28;20048;-39
2022/04/13 06:40:33;;;;;;;11.50;5.93;;;;;;;19.87;46.44;101607.13;5048508;28;20049;-39
2022/04/13 06:43:00;;;;;;;10.85;5.50;;;;;;;19.87;47.27;101609.81;5048320;28;20416;-39
2022/04/13 06:45:27;;;;;;;8.95;5.55;;;;;;;19.88;46.88;101609.66;5046312;28;20049;-39
2022/04/13 06:47:54;;;;;;;11.82;5.68;;;;;;;19.90;47.02;101604.09;5052332;28;20127;-40
2022/04/13 06:50:21;;;;;;;11.60;5.43;;;;;;;19.90;47.12;101614.88;5051819;28;20044;-39
2022/04/13 06:52:47;;;;;;;7.95;4.35;;;;;;;19.92;46.69;101618.28;5051149;28;20049;-39
2022/04/13 06:55:14;;;;;;;10.20;5.28;;;;;;;19.93;47.36;101628.03;5050275;28;20037;-39
2022/04/13 06:57:40;;;;;;;9.90;5.63;;;;;;;19.94;46.99;101625.22;5052598;28;20043;-39
2022/04/13 07:00:12;;;;;;;9.55;5.05;;;;;;;19.96;47.13;101630.44;5045936;28;20440;-39
2022/04/13 07:02:39;;;;;;;9.20;4.97;;;;;;;19.96;47.00;101628.59;5047509;28;20263;-39
2022/04/13 07:05:27;;;;;;;11.70;5.82;;;;;;;19.99;46.48;101642.75;5051062;28;20052;-39
2022/04/13 07:07:58;;;;;;;10.15;4.32;;;;;;;19.99;47.09;101646.28;5051443;28;20049;-39
2022/04/13 07:10:27;;;;;;;10.05;4.82;;;;;;;20.00;46.61;101650.66;5049654;28;20556;-40
2022/04/13 07:12:55;;;;;;;9.98;5.43;;;;;;;20.00;46.73;101647.97;5049032;28;20056;-39
2022/04/13 07:15:22;;;;;;;8.88;4.95;;;;;;;20.02;46.58;101659.47;5049201;28;20111;-39
2022/04/13 07:17:49;;;;;;;9.63;5.47;;;;;;;20.03;47.10;101660.31;5049030;28;20128;-40
2022/04/13 07:20:17;;;;;;;9.10;4.75;;;;;;;20.04;47.14;101651.22;5046377;28;20139;-39
2022/04/13 07:22:45;;;;;;;8.93;4.80;;;;;;;20.06;47.19;101654.59;5047710;28;20343;-39
2022/04/13 07:25:12;;;;;;;8.38;4.93;;;;;;;20.06;47.46;101660.88;5051538;28;20044;-39
2022/04/13 07:27:40;;;;;;;8.65;4.85;;;;;;;20.06;46.73;101658.19;5049940;28;20084;-39
2022/04/13 07:30:07;;;;;;;5.75;3.80;;;;;;;20.08;47.50;101666.94;5049604;28;20036;-39
2022/04/13 07:32:34;;;;;;;6.18;4.05;;;;;;;20.09;47.17;101657.00;5048158;28;20428;-39
2022/04/13 07:35:00;;;;;;;7.25;4.50;;;;;;;20.09;46.61;101663.25;5048386;28;20049;-39
2022/04/13 07:37:27;;;;;;;9.13;4.25;;;;;;;20.10;46.41;101659.56;5050144;28;20373;-39
2022/04/13 07:39:53;;;;;;;9.07;4.50;;;;;;;20.10;46.67;101667.66;5051827;28;20135;-39
2022/04/13 07:42:24;;;;;;;7.05;4.10;;;;;;;20.11;46.74;101672.03;5051738;28;20080;-39
2022/04/13 07:44:52;;;;;;;7.53;3.63;;;;;;;20.12;46.54;101680.94;5049218;28;20081;-39
2022/04/13 07:47:26;;;;;;;8.10;4.25;;;;;;;20.12;46.73;101673.72;5046762;28;20045;-39
2022/04/13 07:49:54;;;;;;;6.55;3.95;;;;;;;20.13;46.54;101675.41;5046352;28;20045;-39
2022/04/13 07:52:20;;;;;;;7.47;3.60;;;;;;;20.14;47.29;101685.19;5048212;28;20063;-39
2022/04/13 07:54:47;;;;;;;9.88;3.90;;;;;;;20.14;47.71;101687.00;5047380;28;20499;-39
2022/04/13 07:57:15;;;;;;;6.90;3.85;;;;;;;20.14;47.09;101687.88;5047761;28;20053;-39
2022/04/13 07:59:42;;;;;;;6.03;3.92;;;;;;;20.17;47.44;101684.88;5045125;28;20048;-40
2022/04/13 08:02:09;;;;;;;5.05;3.22;;;;;;;20.20;47.35;101695.34;5050789;28;20040;-40
2022/04/13 08:04:36;;;;;;;8.85;3.78;;;;;;;20.24;47.22;101698.59;5048333;28;20049;-40
2022/04/13 08:07:03;;;;;;;6.03;3.67;;;;;;;20.28;47.56;101699.16;5050812;28;20055;-39
2022/04/13 08:09:30;;;;;;;6.75;3.85;;;;;;;20.31;46.84;101706.97;5049683;28;20053;-40
2022/04/13 08:11:56;;;;;;;8.02;3.90;;;;;;;20.33;47.17;101703.09;5051073;28;20115;-41
2022/04/13 08:14:23;;;;;;;6.40;3.40;;;;;;;20.36;47.65;101708.19;5048836;28;20033;-40
2022/04/13 08:16:50;;;;;;;8.02;3.45;;;;;;;20.38;47.68;101710.72;5045472;28;20235;-38
2022/04/13 08:19:17;;;;;;;11.60;3.72;;;;;;;20.38;47.11;101708.91;5047856;28;20161;-38
2022/04/13 08:21:44;;;;;;;9.25;3.90;;;;;;;20.37;47.59;101709.03;5047423;28;20953;-38
2022/04/13 08:24:10;;;;;;;6.07;3.22;;;;;;;20.38;47.06;101710.72;5045769;28;20076;-37
2022/04/13 08:26:37;;;;;;;6.32;3.42;;;;;;;20.37;47.94;101709.03;5048917;28;20132;-38
2022/04/13 08:29:04;;;;;;;8.13;3.03;;;;;;;20.36;47.23;101701.97;5047518;28;20052;-39
2022/04/13 08:31:30;;;;;;;5.38;3.30;;;;;;;20.36;47.54;101710.03;5048893;28;20048;-38
2022/04/13 08:33:57;;;;;;;7.50;3.03;;;;;;;20.36;47.58;101712.75;5047050;28;20044;-37
2022/04/13 08:36:23;;;;;;;8.40;3.63;;;;;;;20.36;47.77;101710.03;5046603;28;20089;-38
2022/04/13 08:38:50;;;;;;;7.78;2.83;;;;;;;20.36;46.92;101710.03;5048074;28;20079;-38
2022/04/13 08:41:25;;;;;;;7.05;3.20;;;;;;;20.34;47.57;101715.59;5050328;28;20331;-38
2022/04/13 08:44:02;;;;;;;6.18;2.92;;;;;;;20.34;47.86;101718.28;5046578;28;20372;-38
2022/04/13 08:46:28;;;;;;;6.68;3.47;;;;;;;20.35;47.19;101716.44;5049502;28;20127;-38
2022/04/13 08:48:56;;;;;;;7.18;3.03;;;;;;;20.33;47.21;101719.25;5048701;28;20080;-38
2022/04/13 08:51:44;;;;;;;5.47;2.75;;;;;;;20.35;47.69;101725.34;5049713;28;20061;-38
2022/04/13 08:54:18;;;;;;;7.32;3.20;;;;;;;20.33;47.08;101724.63;5045617;28;20128;-38
2022/04/13 08:56:48;;;;;;;6.38;3.17;;;;;;;20.34;47.64;101730.88;5049468;28;20161;-37
2022/04/13 08:59:40;;;;;;;5.72;3.22;;;;;;;20.33;47.15;101734.56;5048011;28;20045;-38
2022/04/13 09:02:28;;;;;;;5.35;2.90;;;;;;;20.33;47.96;101731.88;5049544;28;20045;-38
2022/04/13 09:04:58;;;;;;;4.05;2.63;;;;;;;20.35;47.75;101735.28;5044192;28;20129;-37
2022/04/13 09:07:30;;;;;;;5.22;2.60;;;;;;;20.34;47.28;101728.19;5046332;28;20136;-37
2022/04/13 09:10:00;;;;;;;4.35;3.05;;;;;;;20.34;47.64;101730.88;5050733;28;20715;-38
2022/04/13 09:12:30;;;;;;;4.65;2.85;;;;;;;20.33;47.39;101735.41;5052447;28;20055;-38
2022/04/13 09:14:59;;;;;;;5.20;2.50;;;;;;;20.33;46.97;101735.41;5051666;28;20041;-38
2022/04/13 09:17:29;;;;;;;6.25;2.90;;;;;;;20.34;47.83;101733.56;5053320;28;20158;-38
2022/04/13 09:19:59;;;;;;;4.85;2.65;;;;;;;20.34;47.70;101744.34;5052491;28;20053;-38
2022/04/13 09:22:26;;;;;;;5.72;2.70;;;;;;;20.34;47.27;101752.41;5051479;28;20052;-37
2022/04/13 09:24:53;;;;;;;7.97;2.85;;;;;;;20.34;47.41;101753.28;5052860;28;20037;-38
2022/04/13 09:27:20;;;;;;;4.93;2.65;;;;;;;20.35;47.70;101760.34;5054807;28;20047;-38
2022/04/13 09:29:47;;;;;;;4.43;2.17;;;;;;;20.36;47.15;101769.28;5049896;28;20059;-38
2022/04/13 09:32:14;;;;;;;6.15;2.70;;;;;;;20.37;47.63;101789.81;5053826;28;20069;-39
2022/04/13 09:34:41;;;;;;;4.00;2.55;;;;;;;20.36;47.81;101791.66;5053201;28;20083;-39
2022/04/13 09:37:08;;;;;;;4.55;2.83;;;;;;;20.37;48.07;101790.66;5052678;28;20464;-38
2022/04/13 09:39:34;;;;;;;5.53;2.55;;;;;;;20.37;48.08;101789.81;5053295;28;20049;-38
2022/04/13 09:42:02;;;;;;;6.28;2.53;;;;;;;20.37;47.83;101798.75;5052525;28;20041;-38
2022/04/13 09:44:33;;;;;;;3.88;2.42;;;;;;;20.37;47.06;101787.13;5050568;28;20127;-36
2022/04/13 09:47:10;;;;;;;6.60;2.72;;;;;;;20.37;47.16;101795.19;5049698;28;20079;-38
2022/04/13 09:49:52;;;;;;;4.82;2.83;;;;;;;20.36;47.75;101793.50;5051264;28;20076;-38
2022/04/13 09:52:28;;;;;;;4.45;2.47;;;;;;;20.37;48.00;101800.59;5049751;28;20362;-38
2022/04/13 09:54:54;;;;;;;3.95;2.30;;;;;;;20.37;47.40;101811.34;5051971;28;20041;-37
2022/04/13 09:57:22;;;;;;;5.30;2.20;;;;;;;20.36;47.17;101815.91;5052332;28;20045;-38
2022/04/13 09:59:58;;;;;;;4.80;2.38;;;;;;;20.36;47.95;101806.97;5052074;28;20136;-38
2022/04/13 10:02:36;;;;;;;4.95;2.40;;;;;;;20.37;47.28;101808.66;5053208;28;20072;-38
2022/04/13 10:05:05;;;;;;;7.50;2.67;;;;;;;20.37;47.58;101814.06;5050545;28;20033;-38
2022/04/13 10:07:32;;;;;;;4.80;2.40;;;;;;;20.36;46.87;101813.22;5052327;28;20127;-38
2022/04/13 10:09:59;;;;;;;3.67;1.90;;;;;;;20.36;46.88;101817.75;5048776;28;20068;-38
2022/04/13 10:12:26;;;;;;;5.32;2.35;;;;;;;20.37;47.22;101822.13;5050070;28;20095;-38
2022/04/13 10:15:05;;;;;;;4.20;1.80;;;;;;;20.37;47.90;101827.50;5047726;28;20111;-38
2022/04/13 10:17:33;;;;;;;4.15;2.42;;;;;;;20.37;48.00;101831.06;5048975;28;20057;-38
2022/04/13 10:20:00;;;;;;;5.95;2.28;;;;;;;20.38;48.26;101839.97;5047743;28;20420;-38
2022/04/13 10:22:26;;;;;;;5.38;2.10;;;;;;;20.38;47.58;101845.34;5052379;28;20048;-38
2022/04/13 10:24:53;;;;;;;9.13;2.55;;;;;;;20.37;47.59;101839.13;5052285;28;20041;-38
2022/04/13 10:27:25;;;;;;;6.85;2.47;;;;;;;20.37;47.17;101833.75;5052646;28;20135;-38
2022/04/13 10:29:52;;;;;;;4.13;2.08;;;;;;;20.37;47.79;101839.13;5049932;28;20489;-38
2022/04/13 10:32:22;;;;;;;5.68;2.40;;;;;;;20.37;48.26;101831.06;5046720;28;20421;-38
2022/04/13 10:34:52;;;;;;;5.72;2.85;;;;;;;20.38;47.76;101832.78;5048388;28;20431;-38
2022/04/13 10:37:21;;;;;;;3.70;2.53;;;;;;;20.38;48.37;101839.97;5049070;28;20091;-38
2022/04/13 10:39:49;;;;;;;5.28;2.40;;;;;;;20.38;47.88;101840.84;5050767;28;20052;-38
2022/04/13 10:42:17;;;;;;;6.82;2.67;;;;;;;20.37;47.82;101847.22;5050659;28;20153;-39
2022/04/13 10:44:58;;;;;;;8.68;2.63;;;;;;;20.37;48.31;101841.81;5049693;28;20316;-37
2022/04/13 10:47:43;;;;;;;4.90;2.30;;;;;;;20.38;48.98;101843.53;5049804;28;20422;-37
2022/04/13 10:50:12;;;;;;;5.75;2.33;;;;;;;20.39;48.69;101837.16;5049497;28;20056;-38
2022/04/13 10:53:20;;;;;;;5.32;2.67;;;;;;;20.39;48.20;101841.69;5050210;28;20132;-37
2022/04/13 10:55:57;;;;;;;6.88;2.17;;;;;;;20.40;48.01;101841.53;5049467;28;20128;-37
2022/04/13 10:58:35;;;;;;;4.57;1.92;;;;;;;20.41;48.23;101850.47;5048878;28;20077;-38
2022/04/13 11:01:04;;;;;;;8.18;2.38;;;;;;;20.41;48.05;101847.78;5050640;28;20072;-38
2022/04/13 11:03:35;;;;;;;4.03;2.22;;;;;;;20.41;48.42;101848.63;5049637;28;20171;-37
2022/04/13 11:06:04;;;;;;;6.75;2.50;;;;;;;20.41;47.77;101851.31;5049934;28;20144;-38
2022/04/13 11:08:56;;;;;;;5.35;2.13;;;;;;;20.40;47.73;101852.31;5049162;28;20148;-38
2022/04/13 11:11:26;;;;;;;3.60;2.03;;;;;;;20.41;47.63;101847.78;5049280;28;20041;-37
2022/04/13 11:13:53;;;;;;;6.22;2.40;;;;;;;20.41;47.25;101851.31;5049521;28;20123;-37
2022/04/13 11:16:24;;;;;;;4.05;2.30;;;;;;;20.41;47.50;101851.31;5049260;28;20068;-38
2022/04/13 11:19:06;;;;;;;4.63;2.20;;;;;;;20.41;47.22;101848.63;5050069;28;20053;-37
2022/04/13 11:21:34;;;;;;;4.00;2.20;;;;;;;20.42;47.31;101847.66;5047861;28;20148;-37
2022/04/13 11:24:01;;;;;;;5.00;2.17;;;;;;;20.43;47.17;101853.88;5047472;28;20380;-38
2022/04/13 11:26:48;;;;;;;5.00;2.30;;;;;;;20.42;47.64;101838.69;5051083;28;20041;-38
2022/04/13 11:29:21;;;;;;;4.80;2.08;;;;;;;20.42;47.73;101836.00;5050481;28;20079;-37